Time;durP1;ratioP1;P1;durP2;ratioP2;P2;SDS_P1;SDS_P2;PMS_P1;PMS_P2;Temp;Humidity;BMP_temperature;BMP_pressure;BME280_temperature;BME280_humidity;BME280_pressure;Samples;Min_cycle;Max_cycle;Signal;HPM_P1;HPM_P2
2021/03/19 00:00:17;;;;;;;21.73;13.18;;;;;;;;;;5082938;28;20301;-57
2021/03/19 00:02:44;;;;;;;21.08;13.90;;;;;;;;;;5095980;28;20226;-52
2021/03/19 00:05:11;;;;;;;17.55;13.00;;;;;;;;;;5095526;28;20204;-52
2021/03/19 00:07:42;;;;;;;16.10;11.63;;;;;;;;;;5096248;28;20260;-46
2021/03/19 00:10:10;;;;;;;17.90;11.82;;;;;;;;;;5095946;28;20225;-55
2021/03/19 00:13:09;;;;;;;21.13;11.98;;;;;;;;;;5095027;28;20200;-50
2021/03/19 00:15:37;;;;;;;13.88;11.05;;;;;;;;;;5076361;28;20199;-54
2021/03/19 00:18:04;;;;;;;18.30;11.15;;;;;;;;;;5087363;28;20186;-52
2021/03/19 00:20:32;;;;;;;16.25;11.55;;;;;;;;;;5096680;28;20226;-52
2021/03/19 00:22:58;;;;;;;16.38;10.38;;;;;;;;;;5095599;28;20186;-45
2021/03/19 00:25:26;;;;;;;18.35;11.32;;;;;;;;;;5095552;28;20214;-50
2021/03/19 00:28:25;;;;;;;15.75;11.23;;;;;;;;;;5098315;28;20183;-50
2021/03/19 00:30:52;;;;;;;16.33;11.95;;;;;;;;;;5103201;28;20220;-51
2021/03/19 00:33:19;;;;;;;16.60;11.27;;;;;;;;;;5101141;28;20255;-54
2021/03/19 00:35:52;;;;;;;17.95;11.65;;;;;;;;;;5115951;28;20221;-49
2021/03/19 00:38:19;;;;;;;18.92;11.50;;;;;;;;;;5108097;28;20197;-56
2021/03/19 00:40:46;;;;;;;21.58;11.35;;;;;;;;;;5095879;28;20213;-54
2021/03/19 00:43:16;;;;;;;16.23;11.90;;;;;;;;;;5095463;28;20213;-56
2021/03/19 00:45:44;;;;;;;17.70;11.88;;;;;;;;;;5095672;28;20194;-53
2021/03/19 00:48:12;;;;;;;21.55;12.45;;;;;;;;;;5095627;28;20209;-59
2021/03/19 00:50:42;;;;;;;17.00;11.90;;;;;;;;;;5095629;28;20201;-53
2021/03/19 00:53:10;;;;;;;22.70;12.93;;;;;;;;;;5096094;28;20186;-47
2021/03/19 00:55:37;;;;;;;26.35;13.80;;;;;;;;;;5095641;28;20216;-52
2021/03/19 00:58:20;;;;;;;18.60;12.85;;;;;;;;;;5095533;28;20182;-51
2021/03/19 01:00:47;;;;;;;17.58;12.90;;;;;;;;;;5096167;28;20202;-53
2021/03/19 01:03:15;;;;;;;20.80;11.27;;;;;;;;;;5096062;28;20217;-50
2021/03/19 01:08:48;;;;;;;18.88;11.77;;;;;;;;;;5089575;28;20215;-55
2021/03/19 01:11:15;;;;;;;21.25;13.05;;;;;;;;;;5122760;28;20240;-54
2021/03/19 01:13:42;;;;;;;19.30;12.40;;;;;;;;;;5127625;28;20197;-48
2021/03/19 01:16:20;;;;;;;18.00;12.90;;;;;;;;;;5136568;28;20224;-46
2021/03/19 01:18:48;;;;;;;15.77;12.25;;;;;;;;;;5120202;28;20256;-45
2021/03/19 01:21:16;;;;;;;20.77;11.90;;;;;;;;;;5116009;28;20209;-52
2021/03/19 01:23:43;;;;;;;19.52;15.10;;;;;;;;;;5116027;28;20196;-47
2021/03/19 01:26:10;;;;;;;16.30;11.57;;;;;;;;;;5115835;28;20197;-48
2021/03/19 01:28:45;;;;;;;17.90;12.23;;;;;;;;;;5128715;28;20173;-50
2021/03/19 01:31:12;;;;;;;14.98;10.90;;;;;;;;;;5136693;28;20235;-55
2021/03/19 01:33:39;;;;;;;17.23;12.25;;;;;;;;;;5137102;28;20230;-50
2021/03/19 01:36:39;;;;;;;18.05;10.85;;;;;;;;;;5136528;28;20238;-48
2021/03/19 01:39:07;;;;;;;18.10;12.45;;;;;;;;;;5104366;28;20251;-46
2021/03/19 01:41:33;;;;;;;16.98;12.00;;;;;;;;;;5100199;28;20214;-49
2021/03/19 01:44:06;;;;;;;26.42;13.35;;;;;;;;;;5093735;28;20198;-50
2021/03/19 01:46:51;;;;;;;16.63;12.95;;;;;;;;;;5109887;28;20194;-57
2021/03/19 01:49:51;;;;;;;23.15;12.75;;;;;;;;;;5082303;28;20197;-56
2021/03/19 01:52:36;;;;;;;19.05;13.50;;;;;;;;;;5099246;28;20249;-51
2021/03/19 01:55:22;;;;;;;18.40;11.95;;;;;;;;;;5099123;28;20213;-57
2021/03/19 01:58:07;;;;;;;18.55;13.10;;;;;;;;;;5090948;28;20217;-57
2021/03/19 02:00:52;;;;;;;21.80;11.70;;;;;;;;;;5083837;28;20576;-49
2021/03/19 02:03:38;;;;;;;18.92;13.65;;;;;;;;;;5099475;28;20196;-49
2021/03/19 02:06:23;;;;;;;22.23;14.63;;;;;;;;;;5099110;28;20175;-55
2021/03/19 02:09:09;;;;;;;18.45;12.52;;;;;;;;;;5093736;28;20282;-46
2021/03/19 02:14:58;;;;;;;19.20;13.82;;;;;;;;;;5097658;28;20224;-55
2021/03/19 02:17:43;;;;;;;26.45;14.95;;;;;;;;;;5098501;28;20266;-53
2021/03/19 02:20:28;;;;;;;19.40;12.90;;;;;;;;;;5093063;28;20604;-54
2021/03/19 02:23:14;;;;;;;18.67;13.45;;;;;;;;;;5095348;28;20252;-52
2021/03/19 02:26:18;;;;;;;23.00;14.10;;;;;;;;;;5099136;28;20191;-51
2021/03/19 02:29:03;;;;;;;22.58;14.57;;;;;;;;;;5098959;28;20197;-49
2021/03/19 02:32:03;;;;;;;20.13;14.07;;;;;;;;;;5099196;28;20174;-52
2021/03/19 02:34:32;;;;;;;26.45;14.93;;;;;;;;;;5099189;28;20182;-53
2021/03/19 02:36:59;;;;;;;18.52;14.30;;;;;;;;;;5099145;28;20221;-47
2021/03/19 02:39:35;;;;;;;20.08;15.35;;;;;;;;;;5098479;28;20186;-47
2021/03/19 02:42:02;;;;;;;24.33;16.13;;;;;;;;;;5099259;28;20190;-55
2021/03/19 02:44:29;;;;;;;20.08;14.13;;;;;;;;;;5098991;28;20279;-53
2021/03/19 02:47:10;;;;;;;24.85;15.60;;;;;;;;;;5090700;28;20269;-52
2021/03/19 02:49:39;;;;;;;20.77;15.18;;;;;;;;;;5098650;28;20189;-55
2021/03/19 02:52:06;;;;;;;24.83;15.13;;;;;;;;;;5098623;28;20266;-49
2021/03/19 02:54:35;;;;;;;23.45;15.85;;;;;;;;;;5098370;28;20190;-50
2021/03/19 02:57:01;;;;;;;22.60;14.43;;;;;;;;;;5098798;28;20236;-55
2021/03/19 02:59:28;;;;;;;23.08;14.63;;;;;;;;;;5086033;28;20189;-51
2021/03/19 03:02:32;;;;;;;30.75;14.48;;;;;;;;;;5098546;28;20190;-48
2021/03/19 03:05:00;;;;;;;22.13;16.67;;;;;;;;;;5098543;28;20185;-52
2021/03/19 03:07:27;;;;;;;23.88;15.45;;;;;;;;;;5095842;28;20209;-50
2021/03/19 03:10:15;;;;;;;22.15;15.48;;;;;;;;;;5098413;28;20204;-52
2021/03/19 03:12:42;;;;;;;23.00;15.13;;;;;;;;;;5071414;28;20197;-50
2021/03/19 03:15:10;;;;;;;24.80;16.48;;;;;;;;;;5092135;28;20237;-53
2021/03/19 03:17:48;;;;;;;23.77;15.73;;;;;;;;;;5096203;28;20226;-53
2021/03/19 03:20:17;;;;;;;26.10;17.63;;;;;;;;;;5097971;28;20282;-53
2021/03/19 03:22:44;;;;;;;19.63;15.35;;;;;;;;;;5097491;28;20260;-50
2021/03/19 03:25:20;;;;;;;22.98;16.35;;;;;;;;;;5096955;28;20223;-54
2021/03/19 03:27:47;;;;;;;24.92;16.08;;;;;;;;;;5072306;28;20472;-53
2021/03/19 03:30:17;;;;;;;26.70;18.33;;;;;;;;;;5091819;28;20217;-52
2021/03/19 03:32:54;;;;;;;24.25;17.13;;;;;;;;;;5095508;28;20206;-58
2021/03/19 03:35:23;;;;;;;20.88;15.75;;;;;;;;;;5097505;28;20253;-52
2021/03/19 03:37:50;;;;;;;26.20;16.50;;;;;;;;;;5096904;28;20249;-46
2021/03/19 03:43:20;;;;;;;24.48;14.95;;;;;;;;;;5097700;28;20204;-50
2021/03/19 03:45:47;;;;;;;27.52;18.40;;;;;;;;;;5097689;28;20202;-52
2021/03/19 03:48:21;;;;;;;23.45;15.05;;;;;;;;;;5097392;28;20186;-52
2021/03/19 03:50:49;;;;;;;23.30;16.80;;;;;;;;;;5095516;28;20440;-56
2021/03/19 03:53:16;;;;;;;28.42;17.77;;;;;;;;;;5077811;28;20191;-44
2021/03/19 03:56:10;;;;;;;23.52;15.48;;;;;;;;;;5090505;28;20206;-51
2021/03/19 03:58:37;;;;;;;27.33;16.10;;;;;;;;;;5089416;28;20238;-56
2021/03/19 04:01:04;;;;;;;24.73;17.40;;;;;;;;;;5097124;28;20214;-54
2021/03/19 04:03:31;;;;;;;21.65;15.88;;;;;;;;;;5097729;28;20224;-54
2021/03/19 04:05:58;;;;;;;22.45;15.13;;;;;;;;;;5097014;28;20198;-52
2021/03/19 04:11:29;;;;;;;25.23;17.08;;;;;;;;;;5095744;28;20220;-52
2021/03/19 04:13:56;;;;;;;20.10;14.68;;;;;;;;;;5097417;28;20246;-49
2021/03/19 04:17:00;;;;;;;22.25;15.55;;;;;;;;;;5089955;28;20229;-52
2021/03/19 04:19:26;;;;;;;22.27;15.73;;;;;;;;;;5092462;28;20200;-49
2021/03/19 04:21:54;;;;;;;19.63;14.57;;;;;;;;;;5096984;28;20206;-53
2021/03/19 04:24:34;;;;;;;24.98;16.77;;;;;;;;;;5097064;28;20197;-44
2021/03/19 04:27:01;;;;;;;28.00;18.00;;;;;;;;;;5097343;28;20201;-50
2021/03/19 04:29:28;;;;;;;24.00;16.55;;;;;;;;;;5096660;28;20202;-52
2021/03/19 04:32:01;;;;;;;24.52;15.77;;;;;;;;;;5097162;28;20186;-48
2021/03/19 04:34:28;;;;;;;23.70;16.42;;;;;;;;;;5088717;28;20217;-52
2021/03/19 04:36:56;;;;;;;24.58;16.48;;;;;;;;;;5095390;28;20225;-59
2021/03/19 04:39:37;;;;;;;23.73;14.68;;;;;;;;;;5095976;28;20217;-52
2021/03/19 04:42:04;;;;;;;24.83;17.17;;;;;;;;;;5096684;28;20244;-55
2021/03/19 04:44:34;;;;;;;23.13;15.38;;;;;;;;;;5087718;28;20249;-52
2021/03/19 04:47:14;;;;;;;23.73;16.17;;;;;;;;;;5096634;28;20192;-57
2021/03/19 04:49:41;;;;;;;25.05;16.50;;;;;;;;;;5096692;28;20260;-56
2021/03/19 04:52:09;;;;;;;25.08;15.77;;;;;;;;;;5095980;28;20217;-50
2021/03/19 04:57:41;;;;;;;28.73;17.25;;;;;;;;;;5096995;28;20575;-54
2021/03/19 05:00:10;;;;;;;23.42;15.10;;;;;;;;;;5094153;28;20244;-51
2021/03/19 05:02:38;;;;;;;24.40;13.60;;;;;;;;;;5096079;28;20193;-57
2021/03/19 05:05:09;;;;;;;25.00;15.45;;;;;;;;;;5096220;28;20208;-54
2021/03/19 05:07:41;;;;;;;26.15;17.55;;;;;;;;;;5090560;28;20249;-50
2021/03/19 05:10:09;;;;;;;22.38;14.68;;;;;;;;;;5095495;28;20186;-59
2021/03/19 05:12:36;;;;;;;27.10;16.40;;;;;;;;;;5092723;28;20194;-48
2021/03/19 05:15:04;;;;;;;27.73;16.27;;;;;;;;;;5096607;28;20174;-53
2021/03/19 05:17:43;;;;;;;23.58;15.07;;;;;;;;;;5096006;28;20218;-56
2021/03/19 05:20:12;;;;;;;22.23;14.20;;;;;;;;;;5096055;28;20205;-58
2021/03/19 05:22:43;;;;;;;23.77;15.63;;;;;;;;;;5095844;28;20647;-50
2021/03/19 05:25:20;;;;;;;22.70;15.10;;;;;;;;;;5077296;28;20199;-56
2021/03/19 05:27:47;;;;;;;19.30;13.40;;;;;;;;;;5089053;28;20240;-52
2021/03/19 05:30:15;;;;;;;22.38;14.55;;;;;;;;;;5099236;28;20231;-55
2021/03/19 05:32:47;;;;;;;25.23;16.95;;;;;;;;;;5116342;28;20212;-54
2021/03/19 05:35:15;;;;;;;21.23;14.52;;;;;;;;;;5116484;28;20211;-51
2021/03/19 05:37:45;;;;;;;20.23;15.05;;;;;;;;;;5116619;28;20216;-59
2021/03/19 05:40:22;;;;;;;19.73;14.38;;;;;;;;;;5103149;28;20186;-51
2021/03/19 05:42:49;;;;;;;20.98;13.82;;;;;;;;;;5095877;28;20186;-58
2021/03/19 05:45:21;;;;;;;27.77;16.40;;;;;;;;;;5094600;28;20182;-55
2021/03/19 05:47:48;;;;;;;33.28;17.98;;;;;;;;;;5094960;28;20209;-56
2021/03/19 05:50:21;;;;;;;22.55;14.85;;;;;;;;;;5095125;28;20205;-54
2021/03/19 05:52:49;;;;;;;28.77;18.95;;;;;;;;;;5095879;28;20186;-53
2021/03/19 05:55:17;;;;;;;26.85;17.27;;;;;;;;;;5094424;28;20251;-54
2021/03/19 05:57:44;;;;;;;30.35;16.77;;;;;;;;;;5095119;28;20238;-55
2021/03/19 06:00:17;;;;;;;23.88;16.05;;;;;;;;;;5090703;28;20197;-55
2021/03/19 06:02:58;;;;;;;27.63;16.70;;;;;;;;;;5095841;28;20239;-55
2021/03/19 06:05:26;;;;;;;21.77;14.98;;;;;;;;;;5091347;28;20201;-54
2021/03/19 06:07:58;;;;;;;24.45;15.82;;;;;;;;;;5105010;28;20557;-53
2021/03/19 06:10:43;;;;;;;24.52;15.43;;;;;;;;;;5103125;28;20217;-57
2021/03/19 06:13:20;;;;;;;25.02;16.17;;;;;;;;;;5095675;28;20190;-52
2021/03/19 06:15:48;;;;;;;21.35;14.73;;;;;;;;;;5095995;28;20192;-51
2021/03/19 06:18:21;;;;;;;21.05;14.27;;;;;;;;;;5095813;28;20186;-53
2021/03/19 06:20:57;;;;;;;23.17;14.65;;;;;;;;;;5095581;28;20202;-58
2021/03/19 06:23:48;;;;;;;22.42;13.80;;;;;;;;;;5098140;28;20201;-56
2021/03/19 06:26:24;;;;;;;25.67;14.93;;;;;;;;;;5090608;28;20190;-58
2021/03/19 06:29:06;;;;;;;21.40;13.57;;;;;;;;;;5089840;28;20200;-56
2021/03/19 06:31:33;;;;;;;19.60;13.45;;;;;;;;;;5094837;28;20246;-54
2021/03/19 06:34:08;;;;;;;22.50;15.38;;;;;;;;;;5074912;28;20217;-55
2021/03/19 06:36:50;;;;;;;21.52;14.93;;;;;;;;;;5078259;28;20234;-53
2021/03/19 06:39:52;;;;;;;22.65;13.63;;;;;;;;;;5093133;28;20228;-49
2021/03/19 06:42:30;;;;;;;20.38;13.30;;;;;;;;;;5076149;28;20256;-58
2021/03/19 06:45:16;;;;;;;20.05;11.95;;;;;;;;;;5093369;28;20216;-57
2021/03/19 06:47:45;;;;;;;19.70;14.13;;;;;;;;;;5077961;28;20198;-56
2021/03/19 06:50:30;;;;;;;17.48;13.18;;;;;;;;;;5096036;28;20182;-58
2021/03/19 06:53:16;;;;;;;18.15;12.30;;;;;;;;;;5097400;28;20288;-56
2021/03/19 06:55:44;;;;;;;21.85;14.40;;;;;;;;;;5098223;28;20221;-52
2021/03/19 06:58:14;;;;;;;22.10;13.18;;;;;;;;;;5081667;28;20266;-55
2021/03/19 07:01:14;;;;;;;17.50;12.23;;;;;;;;;;5094417;28;20187;-58
2021/03/19 07:03:46;;;;;;;20.95;13.57;;;;;;;;;;5077215;28;20257;-60
2021/03/19 07:06:41;;;;;;;23.42;13.98;;;;;;;;;;5098015;28;20194;-56
2021/03/19 07:09:13;;;;;;;19.42;11.95;;;;;;;;;;5098227;28;20190;-55
2021/03/19 07:11:49;;;;;;;22.27;12.52;;;;;;;;;;5096594;28;20205;-53
2021/03/19 07:14:32;;;;;;;19.30;13.07;;;;;;;;;;5097568;28;20177;-55
2021/03/19 07:17:20;;;;;;;23.00;15.25;;;;;;;;;;5091372;28;20277;-58
2021/03/19 07:20:06;;;;;;;17.70;11.13;;;;;;;;;;5092810;28;20198;-59
2021/03/19 07:23:01;;;;;;;21.02;11.98;;;;;;;;;;5069634;28;20231;-58
2021/03/19 07:25:37;;;;;;;19.98;11.70;;;;;;;;;;5076986;28;20236;-53
2021/03/19 07:28:26;;;;;;;19.13;11.20;;;;;;;;;;5085149;28;20230;-53
2021/03/19 07:31:19;;;;;;;22.13;11.10;;;;;;;;;;5076915;28;20203;-56
2021/03/19 07:36:54;;;;;;;16.25;10.15;;;;;;;;;;5096925;28;20208;-56
2021/03/19 07:39:34;;;;;;;18.10;11.18;;;;;;;;;;5083379;28;20216;-57
2021/03/19 07:42:06;;;;;;;18.77;11.85;;;;;;;;;;5097655;28;20240;-57
2021/03/19 07:44:46;;;;;;;18.08;12.75;;;;;;;;;;5096893;28;20201;-56
2021/03/19 07:47:47;;;;;;;17.85;11.60;;;;;;;;;;5085405;28;20198;-53
2021/03/19 07:50:19;;;;;;;21.27;13.18;;;;;;;;;;5085379;28;20182;-58
2021/03/19 07:52:58;;;;;;;18.52;11.32;;;;;;;;;;5097005;28;20194;-55
2021/03/19 07:56:03;;;;;;;17.20;12.02;;;;;;;;;;5077047;28;20187;-56
2021/03/19 07:58:36;;;;;;;20.23;13.80;;;;;;;;;;5090718;28;20335;-59
2021/03/19 08:01:12;;;;;;;18.15;10.82;;;;;;;;;;5095323;28;20206;-59
2021/03/19 08:03:40;;;;;;;19.48;11.15;;;;;;;;;;5096125;28;20182;-58
2021/03/19 08:06:10;;;;;;;19.38;10.38;;;;;;;;;;5096818;28;20202;-57
2021/03/19 08:08:54;;;;;;;19.25;11.32;;;;;;;;;;5095964;28;20225;-60
2021/03/19 08:11:24;;;;;;;19.33;11.30;;;;;;;;;;5095555;28;20221;-56
2021/03/19 08:14:20;;;;;;;16.10;10.52;;;;;;;;;;5092169;28;20194;-52
2021/03/19 08:16:53;;;;;;;16.75;10.20;;;;;;;;;;5095871;28;20221;-53
2021/03/19 08:19:35;;;;;;;16.55;10.07;;;;;;;;;;5095782;28;20186;-58
2021/03/19 08:22:06;;;;;;;20.15;10.05;;;;;;;;;;5095542;28;20189;-55
2021/03/19 08:24:53;;;;;;;15.00;9.45;;;;;;;;;;5100724;28;20204;-56
2021/03/19 08:27:27;;;;;;;13.32;7.82;;;;;;;;;;5098215;28;20240;-56
2021/03/19 08:29:59;;;;;;;14.02;8.98;;;;;;;;;;5096536;28;20197;-58
2021/03/19 08:32:32;;;;;;;17.33;7.75;;;;;;;;;;5096725;28;20189;-55
2021/03/19 08:35:02;;;;;;;12.95;8.27;;;;;;;;;;5095940;28;20186;-56
2021/03/19 08:37:49;;;;;;;14.98;9.68;;;;;;;;;;5095505;28;20198;-57
2021/03/19 08:40:24;;;;;;;13.98;8.85;;;;;;;;;;5082261;28;20218;-59
2021/03/19 08:43:02;;;;;;;16.10;10.20;;;;;;;;;;5095313;28;20177;-58
2021/03/19 08:45:54;;;;;;;18.67;9.57;;;;;;;;;;5082094;28;20473;-53
2021/03/19 08:48:22;;;;;;;17.20;9.90;;;;;;;;;;5090006;28;20191;-59
2021/03/19 08:50:50;;;;;;;13.38;9.10;;;;;;;;;;5094627;28;20264;-59
2021/03/19 08:53:19;;;;;;;12.32;8.32;;;;;;;;;;5094125;28;20247;-58
2021/03/19 08:55:47;;;;;;;17.00;8.75;;;;;;;;;;5095258;28;20190;-58
2021/03/19 08:58:32;;;;;;;15.48;8.10;;;;;;;;;;5095037;28;20249;-54
2021/03/19 09:01:28;;;;;;;18.55;8.82;;;;;;;;;;5087734;28;20255;-58
2021/03/19 09:04:06;;;;;;;14.85;8.10;;;;;;;;;;5090937;28;20186;-59
2021/03/19 09:07:00;;;;;;;11.75;6.82;;;;;;;;;;5085401;28;20186;-56
2021/03/19 09:10:03;;;;;;;10.43;6.15;;;;;;;;;;5054932;28;20186;-56
2021/03/19 09:15:44;;;;;;;9.80;4.55;;;;;;;;;;5098425;28;20200;-56
2021/03/19 09:18:31;;;;;;;8.43;5.25;;;;;;;;;;5093685;28;20252;-57
2021/03/19 09:21:07;;;;;;;8.65;4.70;;;;;;;;;;5093389;28;20186;-58
2021/03/19 09:26:45;;;;;;;8.48;4.75;;;;;;;;;;5082300;28;20262;-56
2021/03/19 09:29:29;;;;;;;9.23;4.40;;;;;;;;;;5085956;28;20238;-54
2021/03/19 09:32:23;;;;;;;6.78;4.00;;;;;;;;;;5092391;28;20233;-50
2021/03/19 09:35:07;;;;;;;12.40;5.90;;;;;;;;;;5095973;28;20225;-57
2021/03/19 09:37:48;;;;;;;7.00;4.63;;;;;;;;;;5103590;28;20283;-56
2021/03/19 09:40:31;;;;;;;8.05;4.80;;;;;;;;;;5092006;28;20197;-53
2021/03/19 09:43:00;;;;;;;8.88;4.72;;;;;;;;;;5082675;28;20177;-55
2021/03/19 09:45:32;;;;;;;7.43;3.90;;;;;;;;;;5094981;28;20197;-52
2021/03/19 09:48:12;;;;;;;5.45;3.30;;;;;;;;;;5095636;28;20216;-59
2021/03/19 09:50:47;;;;;;;7.13;3.75;;;;;;;;;;5094699;28;20186;-58
2021/03/19 09:53:24;;;;;;;7.00;3.78;;;;;;;;;;5088245;28;20210;-55
2021/03/19 09:56:12;;;;;;;6.28;3.72;;;;;;;;;;5077179;28;20198;-53
2021/03/19 09:58:49;;;;;;;6.03;3.75;;;;;;;;;;5095251;28;20267;-59
2021/03/19 10:01:26;;;;;;;5.68;3.83;;;;;;;;;;5097972;28;20197;-56
2021/03/19 10:03:59;;;;;;;6.88;4.28;;;;;;;;;;5097761;28;20261;-57
2021/03/19 10:06:28;;;;;;;9.27;4.50;;;;;;;;;;5100980;28;20194;-60
2021/03/19 10:12:01;;;;;;;7.00;2.83;;;;;;;;;;5087372;28;20228;-58
2021/03/19 10:14:32;;;;;;;5.78;3.67;;;;;;;;;;5091963;28;20264;-52
2021/03/19 10:17:14;;;;;;;6.82;2.90;;;;;;;;;;5103271;28;20215;-57
2021/03/19 10:19:48;;;;;;;5.43;2.65;;;;;;;;;;5095522;28;20210;-55
2021/03/19 10:22:28;;;;;;;4.13;2.70;;;;;;;;;;5094556;28;20203;-53
2021/03/19 10:24:55;;;;;;;6.13;3.75;;;;;;;;;;5104857;28;20197;-58
2021/03/19 10:27:31;;;;;;;5.50;3.15;;;;;;;;;;5089082;28;20217;-54
2021/03/19 10:29:59;;;;;;;4.53;2.80;;;;;;;;;;5088224;28;20220;-56
2021/03/19 10:32:29;;;;;;;6.80;3.72;;;;;;;;;;5087435;28;20237;-57
2021/03/19 10:35:10;;;;;;;9.55;3.10;;;;;;;;;;5093845;28;20191;-60
2021/03/19 10:37:44;;;;;;;8.60;2.90;;;;;;;;;;5097897;28;20236;-56
2021/03/19 10:40:15;;;;;;;6.60;2.95;;;;;;;;;;5081306;28;20197;-55
2021/03/19 10:43:08;;;;;;;9.00;2.85;;;;;;;;;;5078229;28;20191;-60
2021/03/19 10:45:42;;;;;;;4.07;2.47;;;;;;;;;;5088101;28;20194;-55
2021/03/19 10:48:30;;;;;;;8.15;2.90;;;;;;;;;;5097427;28;20200;-57
2021/03/19 10:51:06;;;;;;;4.30;2.83;;;;;;;;;;5093807;28;20195;-54
2021/03/19 10:56:23;;;;;;;4.90;2.47;;;;;;;;;;5085594;28;20191;-57
2021/03/19 10:58:54;;;;;;;6.95;2.95;;;;;;;;;;5077555;28;20310;-57
2021/03/19 11:04:36;;;;;;;3.85;2.10;;;;;;;;;;5097062;28;20196;-56
2021/03/19 11:07:26;;;;;;;3.78;2.00;;;;;;;;;;5081285;28;20193;-52
2021/03/19 11:10:15;;;;;;;4.13;2.42;;;;;;;;;;5084129;28;20206;-60
2021/03/19 11:12:50;;;;;;;4.88;2.63;;;;;;;;;;5090551;28;20222;-49
2021/03/19 11:15:19;;;;;;;5.15;2.60;;;;;;;;;;5097130;28;20201;-53
2021/03/19 11:17:46;;;;;;;7.32;2.88;;;;;;;;;;5086663;28;20219;-54
2021/03/19 11:20:24;;;;;;;3.80;2.45;;;;;;;;;;5093840;28;20197;-52
2021/03/19 11:22:52;;;;;;;5.97;2.90;;;;;;;;;;5084093;28;20202;-54
2021/03/19 11:25:40;;;;;;;3.85;2.40;;;;;;;;;;5097968;28;20229;-61
2021/03/19 11:28:13;;;;;;;4.70;2.80;;;;;;;;;;5090232;28;20202;-56
2021/03/19 11:30:40;;;;;;;5.18;3.10;;;;;;;;;;5097730;28;20259;-51
2021/03/19 11:33:17;;;;;;;3.42;2.33;;;;;;;;;;5097767;28;20190;-56
2021/03/19 11:36:04;;;;;;;4.55;2.55;;;;;;;;;;5096800;28;20229;-54
2021/03/19 11:38:32;;;;;;;4.90;2.97;;;;;;;;;;5082955;28;20240;-54
2021/03/19 11:41:00;;;;;;;9.15;3.22;;;;;;;;;;5084803;28;20186;-56
2021/03/19 11:43:27;;;;;;;6.80;2.00;;;;;;;;;;5083311;28;20311;-50
2021/03/19 11:46:13;;;;;;;3.80;2.38;;;;;;;;;;5096680;28;20202;-57
2021/03/19 11:48:43;;;;;;;4.65;1.98;;;;;;;;;;5088766;28;20188;-55
2021/03/19 11:51:21;;;;;;;4.28;2.38;;;;;;;;;;5076269;28;20254;-55
2021/03/19 11:53:49;;;;;;;13.05;2.35;;;;;;;;;;5096075;28;20190;-60
2021/03/19 11:56:33;;;;;;;2.90;1.67;;;;;;;;;;5096510;28;20190;-60
2021/03/19 11:59:13;;;;;;;4.05;2.42;;;;;;;;;;5086632;28;20206;-59
2021/03/19 12:05:01;;;;;;;3.70;2.13;;;;;;;;;;4869339;27;6537610;-57
2021/03/19 12:07:29;;;;;;;4.13;2.40;;;;;;;;;;5093256;28;20449;-55
2021/03/19 12:09:56;;;;;;;4.63;2.03;;;;;;;;;;5079156;28;20204;-59
2021/03/19 12:12:49;;;;;;;3.53;2.28;;;;;;;;;;5078709;28;20245;-55
2021/03/19 12:15:26;;;;;;;3.53;1.80;;;;;;;;;;5091903;28;20193;-55
2021/03/19 12:18:00;;;;;;;3.30;1.90;;;;;;;;;;5071931;28;20187;-54
2021/03/19 12:20:38;;;;;;;7.13;1.90;;;;;;;;;;5074370;28;20186;-56
2021/03/19 12:23:31;;;;;;;3.28;1.73;;;;;;;;;;5092733;28;20237;-56
2021/03/19 12:28:50;;;;;;;6.20;1.75;;;;;;;;;;5092471;28;20201;-57
2021/03/19 12:31:37;;;;;;;3.78;2.05;;;;;;;;;;5092438;28;20213;-53
2021/03/19 12:34:14;;;;;;;5.03;2.20;;;;;;;;;;5073138;28;20218;-57
2021/03/19 12:39:51;;;;;;;3.30;1.85;;;;;;;;;;5081089;28;20193;-52
2021/03/19 12:42:36;;;;;;;3.58;2.25;;;;;;;;;;5086642;28;20217;-54
2021/03/19 12:45:04;;;;;;;4.13;1.67;;;;;;;;;;5088888;28;20266;-57
2021/03/19 12:47:31;;;;;;;3.63;1.77;;;;;;;;;;5091778;28;20233;-53
2021/03/19 12:50:24;;;;;;;3.90;1.40;;;;;;;;;;5087908;28;20229;-59
2021/03/19 12:52:52;;;;;;;4.07;1.45;;;;;;;;;;5101549;28;20256;-56
2021/03/19 12:55:26;;;;;;;2.65;1.40;;;;;;;;;;5104490;28;20196;-55
2021/03/19 12:57:57;;;;;;;4.20;1.52;;;;;;;;;;5091951;28;20194;-58
2021/03/19 13:00:26;;;;;;;3.20;1.05;;;;;;;;;;5101549;28;20186;-59
2021/03/19 13:02:53;;;;;;;3.17;1.50;;;;;;;;;;5110151;28;20220;-54
2021/03/19 13:05:30;;;;;;;3.08;1.63;;;;;;;;;;5111566;28;20196;-58
2021/03/19 13:07:58;;;;;;;2.50;1.33;;;;;;;;;;5112446;28;20201;-50
2021/03/19 13:10:27;;;;;;;2.95;1.20;;;;;;;;;;5109448;28;20205;-55
2021/03/19 13:13:03;;;;;;;2.25;1.10;;;;;;;;;;5108767;28;20202;-59
2021/03/19 13:15:32;;;;;;;2.65;1.30;;;;;;;;;;5102762;28;20226;-59
2021/03/19 13:17:59;;;;;;;3.22;1.00;;;;;;;;;;5081726;28;20311;-56
2021/03/19 13:20:33;;;;;;;3.10;1.10;;;;;;;;;;5097217;28;20190;-52
2021/03/19 13:22:59;;;;;;;4.13;1.38;;;;;;;;;;5098827;28;20686;-58
2021/03/19 13:25:29;;;;;;;1.90;1.10;;;;;;;;;;5100011;28;20206;-54
2021/03/19 13:28:02;;;;;;;4.38;1.00;;;;;;;;;;5103103;28;20186;-56
2021/03/19 13:30:31;;;;;;;3.75;1.67;;;;;;;;;;5098071;28;20198;-52
2021/03/19 13:33:04;;;;;;;3.55;1.35;;;;;;;;;;5098375;28;20198;-57
2021/03/19 13:35:54;;;;;;;5.95;1.65;;;;;;;;;;5097692;28;20210;-59
2021/03/19 13:38:22;;;;;;;4.30;1.23;;;;;;;;;;5095734;28;20244;-55
2021/03/19 13:40:51;;;;;;;4.07;1.45;;;;;;;;;;5093967;28;20202;-52
2021/03/19 13:43:35;;;;;;;4.38;1.58;;;;;;;;;;5097687;28;20213;-54
2021/03/19 13:46:03;;;;;;;2.35;1.20;;;;;;;;;;5095416;28;20226;-51
2021/03/19 13:48:31;;;;;;;5.22;1.85;;;;;;;;;;5096821;28;20194;-57
2021/03/19 13:51:13;;;;;;;2.13;1.00;;;;;;;;;;5096757;28;20206;-54
2021/03/19 13:53:41;;;;;;;2.55;1.33;;;;;;;;;;5097258;28;20214;-57
2021/03/19 13:56:11;;;;;;;4.35;2.05;;;;;;;;;;5097554;28;20186;-56
2021/03/19 13:58:39;;;;;;;2.05;0.95;;;;;;;;;;5097374;28;20193;-58
2021/03/19 14:01:09;;;;;;;2.70;1.02;;;;;;;;;;5097269;28;20205;-52
2021/03/19 14:03:45;;;;;;;1.95;1.00;;;;;;;;;;5096688;28;20233;-56
2021/03/19 14:06:22;;;;;;;1.95;0.95;;;;;;;;;;5097261;28;20193;-50
2021/03/19 14:08:50;;;;;;;2.60;1.15;;;;;;;;;;5095782;28;20209;-56
2021/03/19 14:11:18;;;;;;;2.25;1.00;;;;;;;;;;5090119;28;20194;-58
2021/03/19 14:13:53;;;;;;;3.55;1.10;;;;;;;;;;5079071;28;20186;-61
2021/03/19 14:16:20;;;;;;;1.83;0.70;;;;;;;;;;5097297;28;20189;-59
2021/03/19 14:18:47;;;;;;;3.60;1.38;;;;;;;;;;5096946;28;20194;-54
2021/03/19 14:21:15;;;;;;;2.90;1.40;;;;;;;;;;5096853;28;20198;-54
2021/03/19 14:23:42;;;;;;;5.30;1.20;;;;;;;;;;5096966;28;20201;-50
2021/03/19 14:26:31;;;;;;;3.17;1.10;;;;;;;;;;5096398;28;20186;-55
2021/03/19 14:29:25;;;;;;;5.65;1.00;;;;;;;;;;5097436;28;20261;-58
2021/03/19 14:32:33;;;;;;;3.13;1.38;;;;;;;;;;5097174;28;20205;-59
2021/03/19 14:35:01;;;;;;;3.35;1.35;;;;;;;;;;5089803;28;20198;-58
2021/03/19 14:37:47;;;;;;;3.63;1.30;;;;;;;;;;5095880;28;20190;-49
2021/03/19 14:40:17;;;;;;;4.45;2.75;;;;;;;;;;5095901;28;20194;-60
2021/03/19 14:42:49;;;;;;;3.35;1.65;;;;;;;;;;5096559;28;20213;-56
2021/03/19 14:45:15;;;;;;;3.47;1.08;;;;;;;;;;5096543;28;20297;-60
2021/03/19 14:47:42;;;;;;;2.30;1.00;;;;;;;;;;5096696;28;20206;-60
2021/03/19 14:50:17;;;;;;;3.50;1.33;;;;;;;;;;5093748;28;20183;-58
2021/03/19 14:52:45;;;;;;;3.97;1.42;;;;;;;;;;5077395;28;20210;-53
2021/03/19 14:55:12;;;;;;;3.88;1.73;;;;;;;;;;5089632;28;20229;-57
2021/03/19 14:57:45;;;;;;;3.97;1.30;;;;;;;;;;5095791;28;20224;-58
2021/03/19 15:00:15;;;;;;;3.78;1.30;;;;;;;;;;5095989;28;20206;-55
2021/03/19 15:02:42;;;;;;;3.13;1.42;;;;;;;;;;5095685;28;20284;-55
2021/03/19 15:05:29;;;;;;;3.08;1.00;;;;;;;;;;5095578;28;20186;-55
2021/03/19 15:07:56;;;;;;;2.55;1.10;;;;;;;;;;5095791;28;20182;-53
2021/03/19 15:10:27;;;;;;;2.70;1.15;;;;;;;;;;5110517;28;20189;-54
2021/03/19 15:12:55;;;;;;;2.15;0.82;;;;;;;;;;5092485;28;20206;-56
2021/03/19 15:15:24;;;;;;;3.78;1.25;;;;;;;;;;5095891;28;20205;-54
2021/03/19 15:17:51;;;;;;;4.38;1.70;;;;;;;;;;5083232;28;20245;-54
2021/03/19 15:20:20;;;;;;;3.22;1.60;;;;;;;;;;5096518;28;20182;-58
2021/03/19 15:22:50;;;;;;;4.03;1.90;;;;;;;;;;5096100;28;20232;-56
2021/03/19 15:25:17;;;;;;;5.10;1.40;;;;;;;;;;5093040;28;20232;-51
2021/03/19 15:27:44;;;;;;;3.08;1.00;;;;;;;;;;5095431;28;20214;-51
2021/03/19 15:30:15;;;;;;;2.90;1.25;;;;;;;;;;5092512;28;20206;-52
2021/03/19 15:32:42;;;;;;;3.42;1.60;;;;;;;;;;5095634;28;20202;-56
2021/03/19 15:35:26;;;;;;;5.07;2.00;;;;;;;;;;5096101;28;20194;-60
2021/03/19 15:37:58;;;;;;;5.03;2.20;;;;;;;;;;5091201;28;20198;-53
2021/03/19 15:40:27;;;;;;;3.42;1.20;;;;;;;;;;5093989;28;20270;-54
2021/03/19 15:43:19;;;;;;;2.05;1.05;;;;;;;;;;5091250;28;20190;-59
2021/03/19 15:45:47;;;;;;;4.82;1.42;;;;;;;;;;5095745;28;20244;-58
2021/03/19 15:48:17;;;;;;;2.30;1.15;;;;;;;;;;5095850;28;20193;-53
2021/03/19 15:50:45;;;;;;;3.47;1.50;;;;;;;;;;5095281;28;20206;-50
2021/03/19 15:53:15;;;;;;;3.30;1.30;;;;;;;;;;5095617;28;20194;-54
2021/03/19 15:55:47;;;;;;;3.92;1.60;;;;;;;;;;5095928;28;20182;-54